Time;durP1;ratioP1;P1;durP2;ratioP2;P2;SDS_P1;SDS_P2;PMS_P1;PMS_P2;Temp;Humidity;BMP_temperature;BMP_pressure;BME280_temperature;BME280_humidity;BME280_pressure;Samples;Min_cycle;Max_cycle;Signal;HPM_P1;HPM_P2
2023/04/27 00:00:46;;;;;;;8.90;4.38;;;;;;;;;;4910098;28;20055;-58
2023/04/27 00:04:27;;;;;;;11.40;5.05;;;;;;;;;;4910401;29;20109;-57
2023/04/27 00:08:07;;;;;;;12.05;5.15;;;;;;;;;;4907964;28;20083;-57
2023/04/27 00:11:48;;;;;;;9.93;5.03;;;;;;;;;;4921551;28;20351;-58
2023/04/27 00:15:28;;;;;;;13.23;6.68;;;;;;;;;;4909895;28;20081;-60
2023/04/27 00:19:09;;;;;;;10.98;5.50;;;;;;;;;;4909553;28;21899;-57
2023/04/27 00:22:49;;;;;;;13.50;6.45;;;;;;;;;;4910298;28;20055;-58
2023/04/27 00:26:29;;;;;;;10.65;5.93;;;;;;;;;;4904399;28;20491;-59
2023/04/27 00:30:10;;;;;;;13.25;5.70;;;;;;;;;;4909386;28;20135;-58
2023/04/27 00:32:53;;;;;;;12.82;6.32;;;;;;;;;;4906733;28;20054;-58
2023/04/27 00:35:18;;;;;;;12.80;6.47;;;;;;;;;;4913337;28;20058;-60
2023/04/27 00:37:45;;;;;;;22.52;6.80;;;;;;;;;;4910381;28;20397;-60
2023/04/27 00:40:11;;;;;;;12.93;6.57;;;;;;;;;;4907954;28;20067;-59
2023/04/27 00:42:37;;;;;;;12.13;6.07;;;;;;;;;;4908515;28;20111;-59
2023/04/27 00:45:04;;;;;;;10.25;6.05;;;;;;;;;;4910892;28;22118;-59
2023/04/27 00:47:32;;;;;;;11.68;6.45;;;;;;;;;;4904607;29;20047;-58
2023/04/27 00:49:58;;;;;;;12.35;5.57;;;;;;;;;;4900658;28;20556;-58
2023/04/27 00:52:24;;;;;;;12.88;6.20;;;;;;;;;;4909156;28;20537;-59
2023/04/27 00:54:51;;;;;;;11.55;6.82;;;;;;;;;;4908097;28;20063;-57
2023/04/27 00:57:18;;;;;;;10.15;6.22;;;;;;;;;;4912303;28;20062;-59
2023/04/27 00:59:45;;;;;;;11.85;7.20;;;;;;;;;;4913555;28;20166;-60
2023/04/27 01:02:11;;;;;;;12.30;6.50;;;;;;;;;;4913574;28;20058;-58
2023/04/27 01:04:37;;;;;;;11.82;6.90;;;;;;;;;;4913278;28;20044;-56
2023/04/27 01:07:03;;;;;;;11.77;7.22;;;;;;;;;;4910746;28;20522;-59
2023/04/27 01:09:29;;;;;;;10.88;6.53;;;;;;;;;;4912549;28;20065;-57
2023/04/27 01:11:57;;;;;;;13.82;7.10;;;;;;;;;;4920671;28;20056;-57
2023/04/27 01:14:23;;;;;;;14.68;6.78;;;;;;;;;;4912810;28;20057;-62
2023/04/27 01:16:50;;;;;;;12.32;7.15;;;;;;;;;;4908114;28;20056;-61
2023/04/27 01:19:16;;;;;;;13.00;7.38;;;;;;;;;;4910999;28;20060;-59
2023/04/27 01:21:42;;;;;;;13.65;6.93;;;;;;;;;;4913798;29;20056;-60
2023/04/27 01:24:08;;;;;;;11.73;7.28;;;;;;;;;;4910695;28;20859;-62
2023/04/27 01:26:35;;;;;;;11.38;6.72;;;;;;;;;;4911724;28;20063;-59
2023/04/27 01:29:00;;;;;;;12.30;7.10;;;;;;;;;;4911950;28;20609;-59
2023/04/27 01:31:27;;;;;;;17.38;7.40;;;;;;;;;;4924259;28;20110;-58
2023/04/27 01:33:52;;;;;;;15.90;7.53;;;;;;;;;;4909561;28;20060;-62
2023/04/27 01:36:19;;;;;;;10.45;6.82;;;;;;;;;;4919757;28;20122;-58
2023/04/27 01:38:45;;;;;;;13.60;6.60;;;;;;;;;;4910627;28;20817;-56
2023/04/27 01:41:11;;;;;;;14.00;7.00;;;;;;;;;;4914235;28;20416;-57
2023/04/27 01:43:36;;;;;;;12.68;7.15;;;;;;;;;;4910647;28;20114;-59
2023/04/27 01:46:11;;;;;;;10.40;7.05;;;;;;;;;;4911829;28;20044;-58
2023/04/27 01:48:38;;;;;;;12.57;6.95;;;;;;;;;;4916900;28;20048;-57
2023/04/27 01:51:04;;;;;;;13.35;6.68;;;;;;;;;;4913906;28;20115;-57
2023/04/27 01:53:30;;;;;;;16.67;7.18;;;;;;;;;;4910267;28;20055;-57
2023/04/27 01:55:58;;;;;;;9.13;6.25;;;;;;;;;;4910700;28;20102;-60
2023/04/27 01:58:24;;;;;;;17.50;8.45;;;;;;;;;;4911498;28;20150;-59
2023/04/27 02:00:51;;;;;;;14.50;7.32;;;;;;;;;;4909420;28;20130;-60
2023/04/27 02:03:17;;;;;;;13.48;7.10;;;;;;;;;;4910535;28;20078;-56
2023/04/27 02:05:43;;;;;;;13.02;7.03;;;;;;;;;;4912104;28;20051;-57
2023/04/27 02:08:09;;;;;;;13.80;7.38;;;;;;;;;;4909078;28;20060;-59
2023/04/27 02:10:36;;;;;;;14.80;7.45;;;;;;;;;;4919190;28;20062;-61
2023/04/27 02:13:02;;;;;;;11.45;6.55;;;;;;;;;;4911825;28;20085;-58
2023/04/27 02:15:29;;;;;;;12.38;7.13;;;;;;;;;;4912059;28;20052;-57
2023/04/27 02:17:57;;;;;;;18.02;8.00;;;;;;;;;;4911015;29;20059;-59
2023/04/27 02:20:23;;;;;;;20.33;7.78;;;;;;;;;;4910864;28;20091;-61
2023/04/27 02:22:49;;;;;;;16.05;8.23;;;;;;;;;;4912951;28;20453;-58
2023/04/27 02:25:15;;;;;;;15.23;8.32;;;;;;;;;;4910335;28;20505;-59
2023/04/27 02:27:42;;;;;;;15.85;9.10;;;;;;;;;;4911607;28;20071;-58
2023/04/27 02:30:13;;;;;;;23.70;9.30;;;;;;;;;;4912150;28;20067;-57
2023/04/27 02:32:40;;;;;;;16.70;9.02;;;;;;;;;;4910276;28;20054;-58
2023/04/27 02:35:06;;;;;;;16.55;9.02;;;;;;;;;;4912414;29;20059;-58
2023/04/27 02:37:33;;;;;;;16.35;9.35;;;;;;;;;;4911082;28;20086;-58
2023/04/27 02:39:59;;;;;;;20.23;10.57;;;;;;;;;;4909754;28;20044;-59
2023/04/27 02:42:26;;;;;;;16.83;10.50;;;;;;;;;;4910270;28;20063;-59
2023/04/27 02:44:52;;;;;;;22.15;11.15;;;;;;;;;;4908393;28;20067;-57
2023/04/27 02:47:18;;;;;;;19.52;10.90;;;;;;;;;;4904714;28;20586;-60
2023/04/27 02:49:44;;;;;;;15.23;10.52;;;;;;;;;;4910324;28;20069;-58
2023/04/27 02:52:10;;;;;;;15.75;10.35;;;;;;;;;;4911396;28;20591;-58
2023/04/27 02:54:38;;;;;;;18.67;9.95;;;;;;;;;;4910534;28;21965;-58
2023/04/27 02:57:05;;;;;;;16.40;9.68;;;;;;;;;;4911434;28;20055;-59
2023/04/27 02:59:31;;;;;;;14.98;9.77;;;;;;;;;;4910082;28;20070;-56
2023/04/27 03:01:57;;;;;;;17.58;9.15;;;;;;;;;;4912012;28;20139;-59
2023/04/27 03:04:23;;;;;;;15.23;9.82;;;;;;;;;;4913493;28;20135;-59
2023/04/27 03:06:49;;;;;;;18.05;9.15;;;;;;;;;;4912487;28;21099;-58
2023/04/27 03:09:16;;;;;;;13.77;8.32;;;;;;;;;;4909812;28;20064;-57
2023/04/27 03:11:42;;;;;;;12.90;9.50;;;;;;;;;;4913400;28;20059;-55
2023/04/27 03:14:08;;;;;;;20.73;9.95;;;;;;;;;;4915708;28;20055;-59
2023/04/27 03:16:34;;;;;;;18.58;9.10;;;;;;;;;;4910690;28;20682;-57
2023/04/27 03:19:00;;;;;;;13.05;9.05;;;;;;;;;;4907975;29;20195;-58
2023/04/27 03:21:27;;;;;;;19.40;9.27;;;;;;;;;;4909991;28;20067;-56
2023/04/27 03:23:53;;;;;;;16.05;10.07;;;;;;;;;;4907368;28;20663;-58
2023/04/27 03:26:19;;;;;;;16.42;9.23;;;;;;;;;;4909554;28;20170;-58
2023/04/27 03:28:46;;;;;;;15.45;9.43;;;;;;;;;;4908428;28;20052;-60
2023/04/27 03:31:14;;;;;;;18.75;9.18;;;;;;;;;;4910133;28;20059;-57
2023/04/27 03:33:40;;;;;;;14.18;9.50;;;;;;;;;;4907641;28;20047;-60
2023/04/27 03:36:07;;;;;;;14.77;8.55;;;;;;;;;;4911833;28;20055;-58
2023/04/27 03:38:34;;;;;;;12.80;9.27;;;;;;;;;;4909714;28;20499;-58
2023/04/27 03:41:00;;;;;;;15.32;9.00;;;;;;;;;;4911141;28;20146;-64
2023/04/27 03:43:26;;;;;;;17.50;9.52;;;;;;;;;;4910183;28;20059;-58
2023/04/27 03:45:52;;;;;;;21.45;10.02;;;;;;;;;;4907621;28;20463;-60
2023/04/27 03:48:18;;;;;;;15.35;9.00;;;;;;;;;;4909629;28;20051;-58
2023/04/27 03:50:45;;;;;;;19.95;9.57;;;;;;;;;;4909170;28;20056;-56
2023/04/27 03:53:12;;;;;;;13.07;9.02;;;;;;;;;;4908643;28;20054;-59
2023/04/27 03:55:42;;;;;;;15.88;9.25;;;;;;;;;;4911844;28;20066;-59
2023/04/27 03:58:09;;;;;;;16.02;9.02;;;;;;;;;;4908946;28;20062;-60
2023/04/27 04:00:36;;;;;;;20.58;9.77;;;;;;;;;;4909454;28;20548;-57
2023/04/27 04:03:02;;;;;;;23.75;9.90;;;;;;;;;;4908070;28;20043;-57
2023/04/27 04:05:31;;;;;;;17.52;9.63;;;;;;;;;;4908965;28;20052;-59
2023/04/27 04:07:58;;;;;;;16.88;9.65;;;;;;;;;;4904332;29;20426;-57
2023/04/27 04:10:25;;;;;;;22.13;9.50;;;;;;;;;;4908325;28;20163;-59
2023/04/27 04:12:52;;;;;;;11.48;9.05;;;;;;;;;;4919833;28;20417;-58
2023/04/27 04:15:18;;;;;;;14.60;9.80;;;;;;;;;;4907431;28;20051;-60
2023/04/27 04:17:46;;;;;;;19.27;10.85;;;;;;;;;;4909900;28;20047;-60
2023/04/27 04:20:12;;;;;;;21.45;10.35;;;;;;;;;;4908825;28;20067;-61
2023/04/27 04:22:38;;;;;;;20.25;9.35;;;;;;;;;;4908261;28;20158;-59
2023/04/27 04:25:04;;;;;;;18.02;9.82;;;;;;;;;;4915678;28;20043;-58
2023/04/27 04:27:31;;;;;;;20.25;10.07;;;;;;;;;;4908782;28;20051;-58
2023/04/27 04:29:59;;;;;;;15.95;9.88;;;;;;;;;;4908898;28;20056;-58
2023/04/27 04:32:30;;;;;;;19.55;9.73;;;;;;;;;;4910853;28;20058;-58
2023/04/27 04:34:56;;;;;;;18.40;9.73;;;;;;;;;;4914028;28;20555;-59
2023/04/27 04:37:23;;;;;;;20.38;10.23;;;;;;;;;;4914149;28;20062;-58
2023/04/27 04:39:48;;;;;;;20.60;10.05;;;;;;;;;;4909090;28;20320;-58
2023/04/27 04:42:15;;;;;;;16.45;9.80;;;;;;;;;;4908414;29;20465;-57
2023/04/27 04:44:41;;;;;;;20.65;10.18;;;;;;;;;;4911132;29;20062;-58
2023/04/27 04:47:08;;;;;;;21.73;9.57;;;;;;;;;;4911404;28;20052;-59
2023/04/27 04:49:34;;;;;;;23.40;10.68;;;;;;;;;;4911489;28;20047;-64
2023/04/27 04:52:01;;;;;;;17.80;9.80;;;;;;;;;;4913637;28;20177;-59
2023/04/27 04:54:26;;;;;;;15.07;9.57;;;;;;;;;;4912483;28;20486;-59
2023/04/27 04:56:52;;;;;;;17.42;9.65;;;;;;;;;;4911699;28;20358;-59
2023/04/27 04:59:18;;;;;;;18.63;9.65;;;;;;;;;;4910741;28;20069;-58
2023/04/27 05:01:44;;;;;;;18.48;9.65;;;;;;;;;;4914025;28;22266;-58
2023/04/27 05:04:10;;;;;;;21.45;10.02;;;;;;;;;;4912887;28;20423;-59
2023/04/27 05:06:36;;;;;;;15.70;10.05;;;;;;;;;;4912449;28;20131;-60
2023/04/27 05:09:05;;;;;;;22.30;10.23;;;;;;;;;;4911290;28;20425;-59
2023/04/27 05:11:31;;;;;;;16.42;9.70;;;;;;;;;;4919770;28;20120;-61
2023/04/27 05:14:37;;;;;;;26.67;10.65;;;;;;;;;;4921590;28;20059;-60
2023/04/27 05:17:21;;;;;;;21.27;10.57;;;;;;;;;;4910327;28;20365;-59
2023/04/27 05:19:47;;;;;;;22.20;10.85;;;;;;;;;;4911953;28;20055;-60
2023/04/27 05:22:13;;;;;;;20.25;11.23;;;;;;;;;;4912551;29;20110;-58
2023/04/27 05:24:39;;;;;;;17.27;10.63;;;;;;;;;;4909491;28;20253;-60
2023/04/27 05:28:05;;;;;;;22.30;10.93;;;;;;;;;;4905551;28;20050;-61
2023/04/27 05:31:45;;;;;;;16.00;10.80;;;;;;;;;;4908178;28;20121;-62
2023/04/27 05:35:26;;;;;;;20.58;11.10;;;;;;;;;;4913942;28;20416;-61
2023/04/27 05:39:06;;;;;;;20.70;10.10;;;;;;;;;;4904416;29;20055;-64
2023/04/27 05:42:48;;;;;;;19.60;11.23;;;;;;;;;;4909792;28;20052;-63
2023/04/27 05:46:28;;;;;;;19.52;10.93;;;;;;;;;;4907498;28;20055;-61
2023/04/27 05:50:08;;;;;;;20.48;11.40;;;;;;;;;;4908535;28;20192;-61
2023/04/27 05:53:52;;;;;;;18.27;10.45;;;;;;;;;;4909868;29;20123;-61
2023/04/27 05:57:30;;;;;;;34.22;11.15;;;;;;;;;;4911446;28;20063;-61
2023/04/27 06:01:11;;;;;;;22.40;11.20;;;;;;;;;;4910661;28;20082;-64
2023/04/27 06:04:51;;;;;;;21.80;11.95;;;;;;;;;;4907739;29;20043;-63
2023/04/27 06:08:31;;;;;;;18.80;10.95;;;;;;;;;;4910926;28;20047;-62
2023/04/27 06:12:11;;;;;;;24.23;12.23;;;;;;;;;;4921095;28;20073;-62
2023/04/27 06:15:53;;;;;;;26.08;13.57;;;;;;;;;;4911117;28;20055;-61
2023/04/27 06:19:35;;;;;;;25.00;14.52;;;;;;;;;;4909464;28;20056;-65
2023/04/27 06:23:16;;;;;;;34.50;16.60;;;;;;;;;;4908346;28;20051;-64
2023/04/27 06:26:57;;;;;;;24.55;14.40;;;;;;;;;;4912287;28;20115;-63
2023/04/27 06:30:37;;;;;;;25.50;13.57;;;;;;;;;;4911018;28;20048;-64
2023/04/27 06:34:17;;;;;;;25.98;14.00;;;;;;;;;;4909172;28;20772;-64
2023/04/27 06:37:58;;;;;;;24.02;13.93;;;;;;;;;;4910011;28;20563;-61
2023/04/27 06:41:38;;;;;;;36.00;17.38;;;;;;;;;;4912893;28;20051;-64
2023/04/27 06:45:19;;;;;;;27.65;13.93;;;;;;;;;;4909873;28;21064;-64
2023/04/27 06:49:00;;;;;;;31.17;16.00;;;;;;;;;;4908497;28;20578;-68
2023/04/27 06:52:39;;;;;;;23.55;14.15;;;;;;;;;;4910093;28;21487;-65
2023/04/27 06:56:20;;;;;;;33.17;14.93;;;;;;;;;;4907953;28;20099;-65
2023/04/27 07:00:00;;;;;;;24.23;12.93;;;;;;;;;;4909894;28;20418;-64
2023/04/27 07:03:40;;;;;;;22.38;12.45;;;;;;;;;;4910341;28;20048;-62
2023/04/27 07:07:22;;;;;;;18.83;12.20;;;;;;;;;;4912610;28;20047;-65
2023/04/27 07:11:03;;;;;;;24.65;12.68;;;;;;;;;;4911543;28;20452;-67
2023/04/27 07:14:43;;;;;;;24.90;12.80;;;;;;;;;;4929408;28;20051;-68
2023/04/27 07:18:24;;;;;;;26.55;14.93;;;;;;;;;;4911808;28;20092;-69
2023/04/27 07:22:04;;;;;;;21.70;13.85;;;;;;;;;;4914691;28;20157;-65
2023/04/27 07:25:45;;;;;;;25.08;14.63;;;;;;;;;;4910438;29;20488;-62
2023/04/27 07:29:26;;;;;;;21.25;13.15;;;;;;;;;;4908606;28;20044;-65
2023/04/27 07:33:05;;;;;;;31.38;14.07;;;;;;;;;;4912160;28;20056;-65
2023/04/27 07:35:53;;;;;;;27.92;14.73;;;;;;;;;;4908769;28;20491;-67
2023/04/27 07:38:59;;;;;;;24.38;14.32;;;;;;;;;;4904926;29;20240;-63
2023/04/27 07:42:40;;;;;;;26.65;15.02;;;;;;;;;;4908306;28;20767;-63
2023/04/27 07:46:20;;;;;;;27.15;13.90;;;;;;;;;;4906306;28;20734;-64
2023/04/27 07:49:59;;;;;;;27.27;14.82;;;;;;;;;;4910304;28;20062;-63
2023/04/27 07:53:40;;;;;;;22.55;14.75;;;;;;;;;;4910218;28;21020;-64
2023/04/27 07:57:20;;;;;;;23.98;14.75;;;;;;;;;;4911234;28;20147;-66
2023/04/27 08:01:01;;;;;;;23.70;14.02;;;;;;;;;;4910470;28;20486;-64
2023/04/27 08:04:41;;;;;;;29.15;14.23;;;;;;;;;;4908754;28;20051;-67
2023/04/27 08:08:21;;;;;;;25.50;15.60;;;;;;;;;;4910131;28;20095;-63
2023/04/27 08:12:02;;;;;;;25.35;15.52;;;;;;;;;;4928315;28;20106;-61
2023/04/27 08:15:42;;;;;;;28.95;14.82;;;;;;;;;;4918954;28;20140;-67
2023/04/27 08:19:22;;;;;;;23.00;16.23;;;;;;;;;;4908813;28;20130;-62
2023/04/27 08:23:04;;;;;;;28.08;14.88;;;;;;;;;;4907629;28;21355;-63
2023/04/27 08:26:45;;;;;;;23.58;14.13;;;;;;;;;;4908968;28;20564;-63
2023/04/27 08:30:25;;;;;;;24.80;14.65;;;;;;;;;;4912137;28;20068;-63
2023/04/27 08:34:06;;;;;;;24.88;13.90;;;;;;;;;;4910314;28;20043;-61
2023/04/27 08:37:46;;;;;;;22.73;13.35;;;;;;;;;;4909461;28;20107;-63
2023/04/27 08:41:26;;;;;;;22.73;13.18;;;;;;;;;;4911140;28;20078;-62
2023/04/27 08:45:07;;;;;;;24.05;14.18;;;;;;;;;;4908926;28;20087;-65
2023/04/27 08:48:47;;;;;;;19.90;12.48;;;;;;;;;;4910054;28;20063;-64
2023/04/27 08:52:30;;;;;;;23.88;13.32;;;;;;;;;;4912326;28;20663;-61
2023/04/27 08:56:11;;;;;;;22.25;12.77;;;;;;;;;;4909041;28;20055;-62
2023/04/27 08:59:54;;;;;;;23.73;14.05;;;;;;;;;;4908859;28;20560;-64
2023/04/27 09:03:40;;;;;;;25.08;14.35;;;;;;;;;;4910588;28;20416;-62
2023/04/27 09:07:21;;;;;;;28.80;15.38;;;;;;;;;;4908252;28;20051;-65
2023/04/27 09:11:02;;;;;;;22.88;14.00;;;;;;;;;;4909349;28;20331;-66
2023/04/27 09:14:43;;;;;;;23.50;13.93;;;;;;;;;;4907764;28;20839;-64
2023/04/27 09:18:23;;;;;;;23.50;15.07;;;;;;;;;;4913481;28;20110;-66
2023/04/27 09:22:05;;;;;;;27.83;13.93;;;;;;;;;;4912210;28;20843;-66
2023/04/27 09:25:25;;;;;;;30.23;13.75;;;;;;;;;;4913607;28;20051;-64
2023/04/27 09:29:06;;;;;;;26.67;14.10;;;;;;;;;;4911147;28;20405;-67
2023/04/27 09:32:55;;;;;;;28.05;14.90;;;;;;;;;;4911831;28;20060;-68
2023/04/27 09:36:36;;;;;;;26.05;14.55;;;;;;;;;;4910614;28;20728;-67
2023/04/27 09:40:17;;;;;;;28.42;15.02;;;;;;;;;;4911291;29;20069;-66
2023/04/27 09:43:58;;;;;;;26.23;14.73;;;;;;;;;;4912576;28;20051;-66
2023/04/27 09:47:40;;;;;;;28.88;14.80;;;;;;;;;;4911125;28;20054;-66
2023/04/27 09:51:20;;;;;;;25.77;13.52;;;;;;;;;;4919946;28;20166;-65
2023/04/27 09:55:01;;;;;;;23.38;13.80;;;;;;;;;;4912822;28;20075;-66
2023/04/27 09:58:43;;;;;;;21.52;14.23;;;;;;;;;;4912637;28;20149;-65
2023/04/27 10:02:29;;;;;;;23.67;13.25;;;;;;;;;;4910417;28;20040;-66
2023/04/27 10:05:33;;;;;;;;;;;;;;;;;;4909945;28;20086;-65
2023/04/27 10:09:16;;;;;;;27.02;13.40;;;;;;;;;;4912008;29;19931;-66
2023/04/27 10:12:40;;;;;;;23.52;12.15;;;;;;;;;;4925414;28;20627;-68
2023/04/27 10:16:33;;;;;;;22.83;11.15;;;;;;;;;;4925048;28;20078;-65
2023/04/27 10:20:14;;;;;;;25.63;12.35;;;;;;;;;;4915260;28;20398;-67
2023/04/27 10:24:05;;;;;;;24.52;11.90;;;;;;;;;;4912532;28;20055;-65
2023/04/27 10:27:53;;;;;;;23.92;11.98;;;;;;;;;;4909749;28;20047;-65
2023/04/27 10:31:33;;;;;;;23.45;12.95;;;;;;;;;;4910060;28;20435;-65
2023/04/27 10:35:22;;;;;;;20.73;12.57;;;;;;;;;;4911426;28;20056;-67
2023/04/27 10:39:05;;;;;;;21.45;11.45;;;;;;;;;;4912819;28;20471;-64
2023/04/27 10:42:50;;;;;;;17.77;10.52;;;;;;;;;;4909257;28;20154;-65
2023/04/27 10:46:31;;;;;;;20.13;10.23;;;;;;;;;;4910920;28;20079;-65
2023/04/27 10:50:14;;;;;;;13.77;8.48;;;;;;;;;;4910604;28;20051;-65
2023/04/27 10:53:53;;;;;;;13.98;7.85;;;;;;;;;;4912209;28;20039;-64
2023/04/27 10:57:35;;;;;;;14.38;7.53;;;;;;;;;;4909407;28;20158;-65
2023/04/27 11:01:15;;;;;;;13.05;7.40;;;;;;;;;;4911223;28;20060;-66
2023/04/27 11:04:58;;;;;;;22.92;7.53;;;;;;;;;;4909609;28;20051;-67
2023/04/27 11:08:29;;;;;;;11.85;7.20;;;;;;;;;;4909444;28;20266;-65
2023/04/27 11:12:09;;;;;;;18.73;7.93;;;;;;;;;;4910171;28;20555;-67
2023/04/27 11:15:55;;;;;;;14.18;7.40;;;;;;;;;;4908878;28;20059;-65
2023/04/27 11:19:37;;;;;;;12.68;7.75;;;;;;;;;;4910673;28;20058;-65
2023/04/27 11:23:24;;;;;;;14.75;7.30;;;;;;;;;;4910985;28;20059;-65
2023/04/27 11:27:04;;;;;;;11.75;7.38;;;;;;;;;;4910694;28;20059;-66
2023/04/27 11:30:45;;;;;;;12.38;7.00;;;;;;;;;;4910239;28;20083;-65
2023/04/27 11:34:20;;;;;;;;;;;;;;;;;;4910513;28;20055;-65
2023/04/27 11:38:02;;;;;;;11.68;5.82;;;;;;;;;;4912129;28;19930;-65
2023/04/27 11:41:45;;;;;;;11.57;5.80;;;;;;;;;;4910825;28;20052;-65
2023/04/27 11:45:38;;;;;;;8.68;5.82;;;;;;;;;;4909664;28;20046;-66
2023/04/27 11:49:22;;;;;;;11.43;5.38;;;;;;;;;;4908938;28;20080;-67
2023/04/27 11:53:09;;;;;;;8.82;4.78;;;;;;;;;;4909349;28;20051;-65
2023/04/27 11:56:30;;;;;;;;;;;;;;;;;;4907645;28;20052;-64
2023/04/27 12:00:13;;;;;;;12.70;4.20;;;;;;;;;;4909985;28;19937;-66
2023/04/27 12:03:51;;;;;;;16.00;5.32;;;;;;;;;;4907739;28;20043;-63
2023/04/27 12:07:31;;;;;;;12.80;4.20;;;;;;;;;;4909660;28;20055;-68
2023/04/27 12:11:11;;;;;;;8.32;3.80;;;;;;;;;;4924474;28;20432;-65
2023/04/27 12:14:52;;;;;;;10.48;4.20;;;;;;;;;;4909719;28;20154;-66
2023/04/27 12:18:32;;;;;;;7.07;3.80;;;;;;;;;;4908297;28;20548;-66
2023/04/27 12:22:13;;;;;;;10.13;3.70;;;;;;;;;;4908509;28;20068;-64
2023/04/27 12:25:53;;;;;;;11.88;3.67;;;;;;;;;;4908167;28;20067;-67
2023/04/27 12:29:33;;;;;;;15.40;5.40;;;;;;;;;;4909101;28;20051;-65
2023/04/27 12:33:15;;;;;;;9.23;3.35;;;;;;;;;;4909297;28;20044;-67
2023/04/27 12:36:56;;;;;;;7.15;3.00;;;;;;;;;;4910845;28;20063;-65
2023/04/27 12:40:41;;;;;;;4.68;2.60;;;;;;;;;;4910980;28;20044;-65
2023/04/27 12:44:25;;;;;;;6.70;2.75;;;;;;;;;;4908816;28;20055;-68
2023/04/27 12:48:05;;;;;;;7.47;3.28;;;;;;;;;;4909696;28;20158;-65
2023/04/27 12:51:50;;;;;;;5.90;2.90;;;;;;;;;;4909455;29;20135;-66
2023/04/27 12:55:27;;;;;;;7.25;3.10;;;;;;;;;;4911835;28;20062;-68
2023/04/27 12:59:07;;;;;;;6.45;2.78;;;;;;;;;;4911390;28;20052;-65
2023/04/27 13:02:50;;;;;;;9.57;2.80;;;;;;;;;;4912024;28;20048;-67
2023/04/27 13:06:31;;;;;;;9.18;2.50;;;;;;;;;;4911721;28;20066;-66
2023/04/27 13:10:11;;;;;;;6.70;2.80;;;;;;;;;;4919320;28;20047;-67
2023/04/27 13:13:51;;;;;;;4.55;2.42;;;;;;;;;;4913233;28;20509;-63
2023/04/27 13:17:32;;;;;;;5.53;2.60;;;;;;;;;;4912759;28;20134;-65
2023/04/27 13:21:13;;;;;;;5.07;2.40;;;;;;;;;;4913748;28;20063;-67
2023/04/27 13:24:52;;;;;;;10.77;2.47;;;;;;;;;;4912623;28;20084;-65
2023/04/27 13:28:33;;;;;;;8.32;2.38;;;;;;;;;;4911409;28;20184;-67
2023/04/27 13:32:13;;;;;;;5.60;2.88;;;;;;;;;;4913555;28;22722;-65
2023/04/27 13:35:55;;;;;;;8.55;2.70;;;;;;;;;;4909475;28;20058;-65
2023/04/27 13:39:36;;;;;;;6.85;2.33;;;;;;;;;;4911083;28;20086;-67
2023/04/27 13:43:16;;;;;;;9.43;2.50;;;;;;;;;;4911601;28;20810;-65
2023/04/27 13:46:56;;;;;;;5.57;2.20;;;;;;;;;;4911934;28;20056;-65
2023/04/27 13:50:37;;;;;;;8.18;2.08;;;;;;;;;;4912562;28;20568;-66
2023/04/27 13:54:18;;;;;;;6.80;2.20;;;;;;;;;;4911358;28;20067;-66
2023/04/27 13:57:59;;;;;;;4.88;1.80;;;;;;;;;;4910647;28;20254;-66
2023/04/27 14:01:39;;;;;;;15.63;2.38;;;;;;;;;;4911232;28;20062;-68
2023/04/27 14:05:19;;;;;;;6.95;2.35;;;;;;;;;;4911825;28;20068;-66
2023/04/27 14:09:00;;;;;;;6.03;2.28;;;;;;;;;;4912094;28;20063;-66
2023/04/27 14:12:40;;;;;;;9.43;2.10;;;;;;;;;;4920708;28;20492;-65
2023/04/27 14:16:23;;;;;;;8.80;2.50;;;;;;;;;;4911833;28;20095;-69
2023/04/27 14:20:03;;;;;;;5.47;2.00;;;;;;;;;;4915518;28;20039;-69
2023/04/27 14:23:42;;;;;;;8.05;2.17;;;;;;;;;;4913571;29;20047;-65
2023/04/27 14:27:23;;;;;;;6.72;2.25;;;;;;;;;;4912574;28;20051;-66
2023/04/27 14:31:04;;;;;;;6.47;2.03;;;;;;;;;;4913449;28;20966;-64
2023/04/27 14:34:45;;;;;;;4.13;2.40;;;;;;;;;;4911855;28;20046;-69
2023/04/27 14:38:26;;;;;;;7.75;2.63;;;;;;;;;;4910803;28;20093;-67
2023/04/27 14:42:06;;;;;;;4.75;2.15;;;;;;;;;;4909755;28;20043;-65
2023/04/27 14:45:48;;;;;;;5.55;2.20;;;;;;;;;;4912916;28;20050;-69
2023/04/27 14:49:28;;;;;;;8.07;2.30;;;;;;;;;;4910061;28;20274;-65
2023/04/27 14:53:08;;;;;;;8.57;2.67;;;;;;;;;;4911265;28;20082;-64
2023/04/27 14:56:49;;;;;;;5.25;2.08;;;;;;;;;;4911195;28;20047;-65
2023/04/27 15:00:30;;;;;;;9.48;2.40;;;;;;;;;;4910950;28;20055;-64
2023/04/27 15:04:10;;;;;;;8.32;2.22;;;;;;;;;;4908144;29;20071;-64
2023/04/27 15:07:50;;;;;;;9.00;2.38;;;;;;;;;;4907784;28;20052;-66
2023/04/27 15:11:31;;;;;;;6.78;2.10;;;;;;;;;;4922452;29;20058;-69
2023/04/27 15:15:14;;;;;;;3.58;2.03;;;;;;;;;;4909598;28;20056;-67
2023/04/27 15:18:54;;;;;;;10.40;2.40;;;;;;;;;;4912434;28;20048;-68
2023/04/27 15:22:34;;;;;;;10.52;2.80;;;;;;;;;;4911255;28;20130;-66
2023/04/27 15:26:15;;;;;;;7.90;2.97;;;;;;;;;;4911056;28;20324;-68
2023/04/27 15:29:55;;;;;;;11.95;2.47;;;;;;;;;;4912254;28;20067;-67
2023/04/27 15:33:35;;;;;;;10.20;2.45;;;;;;;;;;4910284;28;20062;-66
2023/04/27 15:37:17;;;;;;;6.30;2.38;;;;;;;;;;4912375;28;20071;-68
2023/04/27 15:40:59;;;;;;;6.80;2.40;;;;;;;;;;4906969;28;20468;-67
2023/04/27 15:44:39;;;;;;;7.53;2.80;;;;;;;;;;4907817;28;20058;-69
2023/04/27 15:48:20;;;;;;;5.68;2.55;;;;;;;;;;4911043;28;20110;-69
2023/04/27 15:52:00;;;;;;;7.30;2.70;;;;;;;;;;4908617;28;20162;-66
2023/04/27 15:55:41;;;;;;;7.65;2.70;;;;;;;;;;4911272;28;20691;-72
2023/04/27 15:59:21;;;;;;;4.20;2.28;;;;;;;;;;4913761;28;20078;-68
2023/04/27 16:03:01;;;;;;;10.80;2.33;;;;;;;;;;4913462;28;20488;-65
2023/04/27 16:06:41;;;;;;;7.32;2.60;;;;;;;;;;4911924;28;20051;-68
2023/04/27 16:10:22;;;;;;;5.10;2.70;;;;;;;;;;4915650;28;20171;-68
2023/04/27 16:14:03;;;;;;;6.30;2.45;;;;;;;;;;4910564;28;20056;-69
2023/04/27 16:17:44;;;;;;;7.35;2.60;;;;;;;;;;4909015;28;20436;-68
2023/04/27 16:21:24;;;;;;;8.23;2.63;;;;;;;;;;4911563;28;20142;-68
2023/04/27 16:25:09;;;;;;;8.68;2.83;;;;;;;;;;4910906;28;20118;-69
2023/04/27 16:28:47;;;;;;;5.47;2.50;;;;;;;;;;4908728;28;20047;-67
2023/04/27 16:32:29;;;;;;;8.15;2.30;;;;;;;;;;4910497;28;20877;-70
2023/04/27 16:36:09;;;;;;;9.50;2.40;;;;;;;;;;4910013;28;20135;-68
2023/04/27 16:39:49;;;;;;;4.75;2.40;;;;;;;;;;4910729;28;20186;-69
2023/04/27 16:43:32;;;;;;;8.30;2.80;;;;;;;;;;4904238;28;20059;-68
2023/04/27 16:47:10;;;;;;;6.25;2.70;;;;;;;;;;4908823;28;20049;-68
2023/04/27 16:50:50;;;;;;;6.68;2.60;;;;;;;;;;4908420;28;20087;-69
2023/04/27 16:54:32;;;;;;;8.75;2.40;;;;;;;;;;4907622;28;22530;-67
2023/04/27 16:58:13;;;;;;;9.25;2.67;;;;;;;;;;4906208;28;20473;-68
2023/04/27 17:01:53;;;;;;;4.65;2.63;;;;;;;;;;4907412;28;20055;-68
2023/04/27 17:05:33;;;;;;;7.75;2.35;;;;;;;;;;4909654;28;20095;-77
2023/04/27 17:09:14;;;;;;;5.97;2.50;;;;;;;;;;4910908;28;20060;-69
2023/04/27 17:12:54;;;;;;;9.25;2.75;;;;;;;;;;4914478;28;20066;-65
2023/04/27 17:16:34;;;;;;;10.95;2.67;;;;;;;;;;4908242;28;20408;-69
2023/04/27 17:20:16;;;;;;;8.18;3.03;;;;;;;;;;4908737;28;20128;-67
2023/04/27 17:23:56;;;;;;;11.15;2.88;;;;;;;;;;4910201;28;20051;-68
2023/04/27 17:27:37;;;;;;;9.45;2.85;;;;;;;;;;4908576;28;20052;-66
2023/04/27 17:31:17;;;;;;;6.28;3.05;;;;;;;;;;4910357;29;20489;-68
2023/04/27 17:34:57;;;;;;;11.15;3.03;;;;;;;;;;4909255;29;20122;-65
2023/04/27 17:38:37;;;;;;;11.35;3.13;;;;;;;;;;4908853;28;20055;-68
2023/04/27 17:42:18;;;;;;;7.13;3.25;;;;;;;;;;4912717;29;20048;-64
2023/04/27 17:45:58;;;;;;;10.30;3.20;;;;;;;;;;4912997;28;20051;-67
2023/04/27 17:49:39;;;;;;;13.02;3.30;;;;;;;;;;4909744;28;20063;-66
2023/04/27 17:53:20;;;;;;;7.78;3.35;;;;;;;;;;4911598;28;20580;-65
2023/04/27 17:57:00;;;;;;;7.28;3.10;;;;;;;;;;4910543;29;22691;-68
2023/04/27 18:00:40;;;;;;;7.28;3.13;;;;;;;;;;4913624;28;20079;-69
2023/04/27 18:04:21;;;;;;;6.07;3.30;;;;;;;;;;4914024;28;20742;-72
2023/04/27 18:08:02;;;;;;;7.65;3.50;;;;;;;;;;4911494;28;20059;-69
2023/04/27 18:11:42;;;;;;;7.28;3.90;;;;;;;;;;4924062;28;20102;-70
2023/04/27 18:15:23;;;;;;;7.55;4.10;;;;;;;;;;4911613;29;20749;-68
2023/04/27 18:19:05;;;;;;;9.05;4.10;;;;;;;;;;4911189;28;20514;-67
2023/04/27 18:22:48;;;;;;;7.45;3.40;;;;;;;;;;4911036;28;20448;-68
2023/04/27 18:26:29;;;;;;;5.70;3.42;;;;;;;;;;4913160;28;20043;-68
2023/04/27 18:30:08;;;;;;;8.85;3.97;;;;;;;;;;4913201;28;20062;-66
2023/04/27 18:33:49;;;;;;;8.07;3.55;;;;;;;;;;4903957;28;20070;-74
2023/04/27 18:37:29;;;;;;;9.70;3.80;;;;;;;;;;4910332;28;20115;-69
2023/04/27 18:40:18;;;;;;;7.18;3.42;;;;;;;;;;4904927;29;20084;-70
2023/04/27 18:42:46;;;;;;;8.70;4.00;;;;;;;;;;4908510;28;20087;-68
2023/04/27 18:45:12;;;;;;;11.75;4.05;;;;;;;;;;4908171;28;20052;-70
2023/04/27 18:47:39;;;;;;;11.18;4.05;;;;;;;;;;4908760;28;20051;-68
2023/04/27 18:50:05;;;;;;;10.68;3.88;;;;;;;;;;4908745;28;20605;-65
2023/04/27 18:52:31;;;;;;;9.35;4.35;;;;;;;;;;4912345;28;20202;-69
2023/04/27 18:54:58;;;;;;;11.45;5.10;;;;;;;;;;4910809;28;20481;-68
2023/04/27 18:57:25;;;;;;;12.05;4.30;;;;;;;;;;4912618;29;20090;-69
2023/04/27 18:59:52;;;;;;;8.40;4.45;;;;;;;;;;4908135;29;20047;-69
2023/04/27 19:02:18;;;;;;;12.10;4.90;;;;;;;;;;4904448;29;20596;-69